Time,TemperatureF,DewpointF,PressureIn,WindDirection,WindDirectionDegrees,WindSpeedMPH,WindSpeedGustMPH,Humidity,HourlyPrecipIn,Conditions,Clouds,dailyrainin,SoftwareType,DateUTC
2015-08-01 00:03:00,73.8,74.0,29.93,South,180,0.0,4.0,99,0.01,,,0.00,Kevin's Acu-Scrape20,2015-08-01 04:03:00,
2015-08-01 00:09:00,73.8,74.0,29.93,South,180,0.0,0.0,99,0.01,,,0.00,Kevin's Acu-Scrape20,2015-08-01 04:09:00,
2015-08-01 00:14:00,73.8,74.0,29.92,South,180,0.0,0.0,99,0.01,,,0.00,Kevin's Acu-Scrape20,2015-08-01 04:14:00,
2015-08-01 00:19:00,73.8,74.0,29.92,South,180,0.0,0.0,99,0.01,,,0.00,Kevin's Acu-Scrape20,2015-08-01 04:19:00,
2015-08-01 00:24:00,73.8,74.0,29.93,South,180,0.0,0.0,99,0.01,,,0.00,Kevin's Acu-Scrape20,2015-08-01 04:24:00,
2015-08-01 00:29:00,73.9,74.0,29.93,South,180,0.0,0.0,99,0.01,,,0.00,Kevin's Acu-Scrape20,2015-08-01 04:29:00,
2015-08-01 00:34:00,73.9,74.0,29.92,South,180,0.0,0.0,99,0.01,,,0.00,Kevin's Acu-Scrape20,2015-08-01 04:34:00,
2015-08-01 00:39:00,73.9,74.0,29.93,South,180,0.0,0.0,99,0.01,,,0.00,Kevin's Acu-Scrape20,2015-08-01 04:39:00,
2015-08-01 00:44:00,73.9,74.0,29.93,South,180,0.0,0.0,99,0.01,,,0.00,Kevin's Acu-Scrape20,2015-08-01 04:44:00,
2015-08-01 00:49:00,73.9,74.0,29.92,South,180,0.0,0.0,99,0.01,,,0.00,Kevin's Acu-Scrape20,2015-08-01 04:49:00,
2015-08-01 00:54:00,73.9,74.0,29.92,South,180,0.0,5.0,99,0.01,,,0.00,Kevin's Acu-Scrape20,2015-08-01 04:54:00,
2015-08-01 00:59:00,73.9,74.0,29.92,South,180,0.0,5.0,99,0.00,,,0.00,Kevin's Acu-Scrape20,2015-08-01 04:59:00,
2015-08-01 01:04:00,73.9,74.0,29.92,South,180,0.0,0.0,99,0.00,,,0.00,Kevin's Acu-Scrape20,2015-08-01 05:04:00,
2015-08-01 01:09:00,73.9,74.0,29.92,South,180,0.0,0.0,99,0.00,,,0.00,Kevin's Acu-Scrape20,2015-08-01 05:09:00,
2015-08-01 01:14:00,73.9,74.0,29.92,South,180,0.0,0.0,99,0.00,,,0.00,Kevin's Acu-Scrape20,2015-08-01 05:14:00,
2015-08-01 01:19:00,73.8,74.0,29.92,South,180,0.0,0.0,99,0.00,,,0.00,Kevin's Acu-Scrape20,2015-08-01 05:19:00,
2015-08-01 01:24:00,73.8,74.0,29.92,South,180,0.0,2.0,99,0.00,,,0.00,Kevin's Acu-Scrape20,2015-08-01 05:24:00,
2015-08-01 01:29:00,73.9,74.0,29.92,North,0,0.0,4.0,99,0.00,,,0.00,Kevin's Acu-Scrape20,2015-08-01 05:29:00,
2015-08-01 01:34:00,73.9,73.0,29.92,North,0,0.0,4.0,98,0.00,,,0.00,Kevin's Acu-Scrape20,2015-08-01 05:34:00,
2015-08-01 01:39:00,73.9,74.0,29.92,NNW,337,0.0,5.0,99,0.00,,,0.00,Kevin's Acu-Scrape20,2015-08-01 05:39:00,
2015-08-01 01:44:00,73.8,74.0,29.92,NNW,337,0.0,5.0,99,0.00,,,0.00,Kevin's Acu-Scrape20,2015-08-01 05:44:00,
2015-08-01 01:49:00,73.8,74.0,29.92,West,270,0.0,0.0,99,0.00,,,0.00,Kevin's Acu-Scrape20,2015-08-01 05:49:00,
2015-08-01 01:54:00,73.8,74.0,29.91,WNW,292,0.0,0.0,99,0.00,,,0.00,Kevin's Acu-Scrape20,2015-08-01 05:54:00,
2015-08-01 01:59:00,73.8,74.0,29.91,West,270,0.0,0.0,99,0.00,,,0.00,Kevin's Acu-Scrape20,2015-08-01 05:59:00,
2015-08-01 02:04:00,73.8,74.0,29.92,West,270,0.0,0.0,99,0.00,,,0.00,Kevin's Acu-Scrape20,2015-08-01 06:04:00,
2015-08-01 02:09:00,73.8,74.0,29.91,SW,225,0.0,0.0,99,0.00,,,0.00,Kevin's Acu-Scrape20,2015-08-01 06:09:00,
2015-08-01 02:14:00,73.8,74.0,29.91,NE,45,7.0,7.0,99,0.00,,,0.00,Kevin's Acu-Scrape20,2015-08-01 06:14:00,
2015-08-01 02:19:00,74.1,74.0,29.90,North,0,0.0,7.0,99,0.00,,,0.00,Kevin's Acu-Scrape20,2015-08-01 06:19:00,
2015-08-01 02:24:00,74.1,74.0,29.90,North,0,0.0,7.0,99,0.00,,,0.00,Kevin's Acu-Scrape20,2015-08-01 06:24:00,
2015-08-01 02:29:00,74.1,74.0,29.90,North,0,0.0,0.0,99,0.00,,,0.00,Kevin's Acu-Scrape20,2015-08-01 06:29:00,
2015-08-01 02:34:00,73.9,74.0,29.90,North,0,0.0,0.0,99,0.00,,,0.00,Kevin's Acu-Scrape20,2015-08-01 06:34:00,
2015-08-01 02:39:00,73.9,74.0,29.90,North,0,0.0,0.0,99,0.00,,,0.00,Kevin's Acu-Scrape20,2015-08-01 06:39:00,
2015-08-01 02:44:00,74.3,74.0,29.90,North,0,0.0,0.0,99,0.00,,,0.00,Kevin's Acu-Scrape20,2015-08-01 06:44:00,
2015-08-01 02:49:00,74.1,74.0,29.90,North,0,0.0,0.0,99,0.00,,,0.00,Kevin's Acu-Scrape20,2015-08-01 06:49:00,
2015-08-01 02:54:00,73.9,74.0,29.90,North,0,0.0,0.0,99,0.00,,,0.00,Kevin's Acu-Scrape20,2015-08-01 06:54:00,
2015-08-01 02:59:00,74.1,74.0,29.90,North,0,0.0,0.0,99,0.00,,,0.00,Kevin's Acu-Scrape20,2015-08-01 06:59:00,
2015-08-01 03:04:00,74.1,74.0,29.90,North,0,0.0,0.0,99,0.00,,,0.00,Kevin's Acu-Scrape20,2015-08-01 07:04:00,
2015-08-01 03:09:00,73.9,74.0,29.90,North,0,0.0,0.0,99,0.00,,,0.00,Kevin's Acu-Scrape20,2015-08-01 07:09:00,
2015-08-01 03:14:00,74.1,74.0,29.89,North,0,0.0,0.0,99,0.00,,,0.00,Kevin's Acu-Scrape20,2015-08-01 07:14:00,
2015-08-01 03:19:00,74.1,74.0,29.89,North,0,0.0,0.0,99,0.00,,,0.00,Kevin's Acu-Scrape20,2015-08-01 07:19:00,
2015-08-01 03:24:00,73.9,74.0,29.89,North,0,0.0,0.0,99,0.00,,,0.00,Kevin's Acu-Scrape20,2015-08-01 07:24:00,
2015-08-01 03:29:00,73.9,74.0,29.89,North,0,0.0,0.0,99,0.00,,,0.00,Kevin's Acu-Scrape20,2015-08-01 07:29:00,
2015-08-01 03:34:00,73.9,74.0,29.89,North,0,0.0,0.0,99,0.00,,,0.00,Kevin's Acu-Scrape20,2015-08-01 07:34:00,
2015-08-01 03:39:00,73.9,74.0,29.89,North,0,0.0,0.0,99,0.00,,,0.00,Kevin's Acu-Scrape20,2015-08-01 07:39:00,
2015-08-01 03:44:00,73.9,74.0,29.89,North,0,0.0,0.0,99,0.00,,,0.00,Kevin's Acu-Scrape20,2015-08-01 07:44:00,
2015-08-01 03:49:00,73.8,74.0,29.89,NNE,22,0.0,0.0,99,0.00,,,0.00,Kevin's Acu-Scrape20,2015-08-01 07:49:00,
2015-08-01 03:54:00,73.8,74.0,29.89,NNE,22,0.0,0.0,99,0.00,,,0.00,Kevin's Acu-Scrape20,2015-08-01 07:54:00,
2015-08-01 03:59:00,73.8,74.0,29.89,NNE,22,0.0,0.0,99,0.00,,,0.00,Kevin's Acu-Scrape20,2015-08-01 07:59:00,
2015-08-01 04:04:00,73.6,73.0,29.89,NNE,22,0.0,0.0,99,0.00,,,0.00,Kevin's Acu-Scrape20,2015-08-01 08:04:00,
2015-08-01 04:09:00,73.8,74.0,29.89,North,0,0.0,0.0,99,0.00,,,0.00,Kevin's Acu-Scrape20,2015-08-01 08:09:00,
2015-08-01 04:14:00,73.8,74.0,29.89,North,0,0.0,0.0,99,0.00,,,0.00,Kevin's Acu-Scrape20,2015-08-01 08:14:00,
2015-08-01 04:20:00,73.9,74.0,29.89,North,0,0.0,0.0,99,0.00,,,0.00,Kevin's Acu-Scrape20,2015-08-01 08:20:00,
2015-08-01 04:25:00,73.9,74.0,29.88,North,0,0.0,0.0,99,0.00,,,0.00,Kevin's Acu-Scrape20,2015-08-01 08:25:00,
2015-08-01 04:30:00,73.9,74.0,29.89,North,0,0.0,0.0,99,0.00,,,0.00,Kevin's Acu-Scrape20,2015-08-01 08:30:00,
2015-08-01 04:35:00,74.1,74.0,29.88,North,0,0.0,0.0,99,0.00,,,0.00,Kevin's Acu-Scrape20,2015-08-01 08:35:00,
2015-08-01 04:40:00,74.1,74.0,29.89,North,0,0.0,0.0,99,0.00,,,0.00,Kevin's Acu-Scrape20,2015-08-01 08:40:00,
2015-08-01 04:45:00,73.9,74.0,29.89,North,0,0.0,0.0,99,0.00,,,0.00,Kevin's Acu-Scrape20,2015-08-01 08:45:00,
2015-08-01 04:50:00,73.9,74.0,29.88,North,0,0.0,0.0,99,0.00,,,0.00,Kevin's Acu-Scrape20,2015-08-01 08:50:00,
2015-08-01 04:55:00,73.9,73.0,29.88,North,0,0.0,0.0,98,0.00,,,0.00,Kevin's Acu-Scrape20,2015-08-01 08:55:00,
2015-08-01 05:00:00,73.9,73.0,29.89,North,0,0.0,0.0,97,0.00,,,0.00,Kevin's Acu-Scrape20,2015-08-01 09:00:00,
2015-08-01 05:05:00,74.1,73.0,29.89,North,0,0.0,0.0,97,0.00,,,0.00,Kevin's Acu-Scrape20,2015-08-01 09:05:00,
2015-08-01 05:10:00,74.1,73.0,29.89,North,0,0.0,0.0,97,0.00,,,0.00,Kevin's Acu-Scrape20,2015-08-01 09:10:00,
2015-08-01 05:15:00,74.3,74.0,29.91,NW,315,11.0,20.0,98,0.00,,,0.00,Kevin's Acu-Scrape20,2015-08-01 09:15:00,
2015-08-01 05:20:00,74.1,73.0,29.91,WSW,247,11.0,24.0,96,0.00,,,0.00,Kevin's Acu-Scrape20,2015-08-01 09:20:00,
2015-08-01 05:25:00,74.1,73.0,29.90,North,0,7.0,24.0,96,0.00,,,0.00,Kevin's Acu-Scrape20,2015-08-01 09:25:00,
2015-08-01 05:30:00,74.1,73.0,29.91,West,270,7.0,21.0,95,0.00,,,0.00,Kevin's Acu-Scrape20,2015-08-01 09:30:00,
2015-08-01 05:35:00,74.1,73.0,29.90,NW,315,4.0,16.0,95,0.00,,,0.00,Kevin's Acu-Scrape20,2015-08-01 09:35:00,
2015-08-01 05:40:00,74.3,73.0,29.91,WNW,292,4.0,16.0,95,0.00,,,0.00,Kevin's Acu-Scrape20,2015-08-01 09:40:00,
2015-08-01 05:45:00,74.1,73.0,29.90,West,270,7.0,12.0,96,0.00,,,0.00,Kevin's Acu-Scrape20,2015-08-01 09:45:00,
2015-08-01 05:50:00,74.1,73.0,29.90,North,0,0.0,9.0,96,0.00,,,0.00,Kevin's Acu-Scrape20,2015-08-01 09:50:00,
2015-08-01 05:55:00,74.1,73.0,29.90,North,0,0.0,9.0,97,0.00,,,0.00,Kevin's Acu-Scrape20,2015-08-01 09:55:00,
2015-08-01 06:00:00,74.1,73.0,29.90,North,0,0.0,8.0,97,0.00,,,0.00,Kevin's Acu-Scrape20,2015-08-01 10:00:00,
2015-08-01 06:05:00,73.9,73.0,29.90,North,0,0.0,0.0,98,0.00,,,0.00,Kevin's Acu-Scrape20,2015-08-01 10:05:00,
2015-08-01 06:10:00,73.9,73.0,29.90,North,0,0.0,0.0,98,0.00,,,0.00,Kevin's Acu-Scrape20,2015-08-01 10:10:00,
2015-08-01 06:15:00,73.8,73.0,29.90,North,0,0.0,0.0,98,0.00,,,0.00,Kevin's Acu-Scrape20,2015-08-01 10:15:00,
2015-08-01 06:20:00,73.8,73.0,29.90,North,0,0.0,0.0,98,0.00,,,0.00,Kevin's Acu-Scrape20,2015-08-01 10:20:00,
2015-08-01 06:25:00,73.6,73.0,29.89,North,0,0.0,0.0,99,0.00,,,0.00,Kevin's Acu-Scrape20,2015-08-01 10:25:00,
2015-08-01 06:30:00,73.6,73.0,29.88,North,0,0.0,0.0,99,0.00,,,0.00,Kevin's Acu-Scrape20,2015-08-01 10:30:00,
2015-08-01 06:35:00,73.4,73.0,29.88,East,90,0.0,1.0,99,0.00,,,0.00,Kevin's Acu-Scrape20,2015-08-01 10:35:00,
2015-08-01 06:40:00,73.2,73.0,29.88,ENE,67,0.0,3.0,99,0.00,,,0.00,Kevin's Acu-Scrape20,2015-08-01 10:40:00,
2015-08-01 06:45:00,73.2,73.0,29.88,ENE,67,0.0,3.0,99,0.00,,,0.00,Kevin's Acu-Scrape20,2015-08-01 10:45:00,
2015-08-01 06:50:00,73.2,73.0,29.87,East,90,0.0,0.0,99,0.00,,,0.00,Kevin's Acu-Scrape20,2015-08-01 10:50:00,
2015-08-01 06:55:00,73.2,73.0,29.87,ESE,112,0.0,1.0,99,0.00,,,0.00,Kevin's Acu-Scrape20,2015-08-01 10:55:00,
2015-08-01 07:00:00,73.4,73.0,29.87,ESE,112,0.0,1.0,99,0.00,,,0.00,Kevin's Acu-Scrape20,2015-08-01 11:00:00,
2015-08-01 07:05:00,73.6,73.0,29.87,NE,45,0.0,0.0,99,0.00,,,0.00,Kevin's Acu-Scrape20,2015-08-01 11:05:00,
2015-08-01 07:10:00,73.6,73.0,29.87,South,180,0.0,5.0,99,0.00,,,0.00,Kevin's Acu-Scrape20,2015-08-01 11:10:00,
2015-08-01 07:15:00,73.6,73.0,29.87,East,90,0.0,7.0,99,0.00,,,0.00,Kevin's Acu-Scrape20,2015-08-01 11:15:00,
2015-08-01 07:20:00,73.6,73.0,29.87,NNE,22,0.0,7.0,99,0.00,,,0.00,Kevin's Acu-Scrape20,2015-08-01 11:20:00,
2015-08-01 07:25:00,73.8,74.0,29.88,NNE,22,0.0,7.0,99,0.00,,,0.00,Kevin's Acu-Scrape20,2015-08-01 11:25:00,
2015-08-01 07:30:00,73.9,74.0,29.87,ENE,67,0.0,3.0,99,0.00,,,0.00,Kevin's Acu-Scrape20,2015-08-01 11:30:00,
2015-08-01 07:35:00,74.1,74.0,29.87,ENE,67,6.0,7.0,99,0.00,,,0.00,Kevin's Acu-Scrape20,2015-08-01 11:35:00,
2015-08-01 07:40:00,74.1,74.0,29.87,SSE,157,0.0,8.0,99,0.00,,,0.00,Kevin's Acu-Scrape20,2015-08-01 11:40:00,
2015-08-01 07:45:00,74.3,74.0,29.87,SSE,157,0.0,8.0,99,0.00,,,0.00,Kevin's Acu-Scrape20,2015-08-01 11:45:00,
2015-08-01 07:50:00,74.5,74.0,29.87,ESE,112,0.0,2.0,99,0.00,,,0.00,Kevin's Acu-Scrape20,2015-08-01 11:50:00,
2015-08-01 07:55:00,74.7,74.0,29.87,SSE,157,0.0,2.0,99,0.00,,,0.00,Kevin's Acu-Scrape20,2015-08-01 11:55:00,
2015-08-01 08:00:00,74.8,74.0,29.86,SSE,157,0.0,0.0,99,0.00,,,0.00,Kevin's Acu-Scrape20,2015-08-01 12:00:00,
2015-08-01 08:05:00,75.0,75.0,29.87,South,180,0.0,0.0,99,0.00,,,0.00,Kevin's Acu-Scrape20,2015-08-01 12:05:00,
2015-08-01 08:10:00,75.2,75.0,29.86,South,180,0.0,0.0,99,0.00,,,0.00,Kevin's Acu-Scrape20,2015-08-01 12:10:00,
2015-08-01 08:15:00,75.4,75.0,29.86,South,180,0.0,0.0,99,0.00,,,0.00,Kevin's Acu-Scrape20,2015-08-01 12:15:00,
2015-08-01 08:20:00,75.6,75.0,29.86,East,90,0.0,0.0,99,0.00,,,0.00,Kevin's Acu-Scrape20,2015-08-01 12:20:00,
2015-08-01 08:25:00,75.7,75.0,29.86,WSW,247,0.0,1.0,98,0.00,,,0.00,Kevin's Acu-Scrape20,2015-08-01 12:25:00,
2015-08-01 08:30:00,75.9,75.0,29.87,SW,225,0.0,2.0,98,0.00,,,0.00,Kevin's Acu-Scrape20,2015-08-01 12:30:00,
2015-08-01 08:35:00,75.9,75.0,29.87,SSW,202,3.0,5.0,97,0.00,,,0.00,Kevin's Acu-Scrape20,2015-08-01 12:35:00,
2015-08-01 08:40:00,76.1,75.0,29.86,SSE,157,0.0,5.0,96,0.00,,,0.00,Kevin's Acu-Scrape20,2015-08-01 12:40:00,
2015-08-01 08:45:00,76.3,75.0,29.86,South,180,0.0,5.0,96,0.00,,,0.00,Kevin's Acu-Scrape20,2015-08-01 12:45:00,
2015-08-01 08:50:00,76.5,75.0,29.87,NNE,22,0.0,7.0,95,0.00,,,0.00,Kevin's Acu-Scrape20,2015-08-01 12:50:00,
2015-08-01 08:55:00,76.6,75.0,29.87,ENE,67,0.0,7.0,95,0.00,,,0.00,Kevin's Acu-Scrape20,2015-08-01 12:55:00,
2015-08-01 09:00:00,76.8,75.0,29.86,NE,45,0.0,7.0,95,0.00,,,0.00,Kevin's Acu-Scrape20,2015-08-01 13:00:00,
2015-08-01 09:05:00,77.0,75.0,29.87,ENE,67,0.0,7.0,94,0.00,,,0.00,Kevin's Acu-Scrape20,2015-08-01 13:05:00,
2015-08-01 09:10:00,77.4,76.0,29.87,ENE,67,0.0,0.0,94,0.00,,,0.00,Kevin's Acu-Scrape20,2015-08-01 13:10:00,
2015-08-01 09:15:00,77.5,76.0,29.88,NE,45,0.0,0.0,94,0.00,,,0.00,Kevin's Acu-Scrape20,2015-08-01 13:15:00,
2015-08-01 09:20:00,78.1,76.0,29.87,NNE,22,0.0,0.0,94,0.00,,,0.00,Kevin's Acu-Scrape20,2015-08-01 13:20:00,
2015-08-01 09:25:00,78.4,76.0,29.87,NNE,22,0.0,0.0,93,0.00,,,0.00,Kevin's Acu-Scrape20,2015-08-01 13:25:00,
2015-08-01 09:30:00,78.8,77.0,29.88,NNE,22,0.0,0.0,93,0.00,,,0.00,Kevin's Acu-Scrape20,2015-08-01 13:30:00,
2015-08-01 09:35:00,79.2,77.0,29.87,North,0,0.0,0.0,92,0.00,,,0.00,Kevin's Acu-Scrape20,2015-08-01 13:35:00,
2015-08-01 09:40:00,79.5,77.0,29.87,North,0,0.0,0.0,92,0.00,,,0.00,Kevin's Acu-Scrape20,2015-08-01 13:40:00,
2015-08-01 09:45:00,79.3,76.0,29.87,North,0,0.0,3.0,91,0.00,,,0.00,Kevin's Acu-Scrape20,2015-08-01 13:45:00,
2015-08-01 09:50:00,80.1,77.0,29.88,North,0,0.0,4.0,90,0.00,,,0.00,Kevin's Acu-Scrape20,2015-08-01 13:50:00,
2015-08-01 09:55:00,81.3,77.0,29.87,North,0,0.0,4.0,86,0.00,,,0.00,Kevin's Acu-Scrape20,2015-08-01 13:55:00,
2015-08-01 10:00:00,81.9,77.0,29.86,North,0,0.0,0.0,85,0.00,,,0.00,Kevin's Acu-Scrape20,2015-08-01 14:00:00,
2015-08-01 10:05:00,84.0,78.0,29.87,North,0,0.0,0.0,84,0.00,,,0.00,Kevin's Acu-Scrape20,2015-08-01 14:05:00,
2015-08-01 10:10:00,82.2,77.0,29.86,North,0,3.0,6.0,84,0.00,,,0.00,Kevin's Acu-Scrape20,2015-08-01 14:10:00,
2015-08-01 10:15:00,82.8,77.0,29.86,North,0,0.0,6.0,84,0.00,,,0.00,Kevin's Acu-Scrape20,2015-08-01 14:15:00,
2015-08-01 10:20:00,84.6,77.0,29.86,ENE,67,0.0,3.0,80,0.00,,,0.00,Kevin's Acu-Scrape20,2015-08-01 14:20:00,
2015-08-01 10:25:00,84.2,78.0,29.86,South,180,0.0,0.0,83,0.00,,,0.00,Kevin's Acu-Scrape20,2015-08-01 14:25:00,
2015-08-01 10:30:00,84.7,78.0,29.87,North,0,0.0,0.0,81,0.00,,,0.00,Kevin's Acu-Scrape20,2015-08-01 14:30:00,
2015-08-01 10:35:00,85.5,79.0,29.86,North,0,0.0,0.0,81,0.00,,,0.00,Kevin's Acu-Scrape20,2015-08-01 14:35:00,
2015-08-01 10:40:00,85.5,79.0,29.86,SSE,157,3.0,5.0,81,0.00,,,0.00,Kevin's Acu-Scrape20,2015-08-01 14:40:00,
2015-08-01 10:45:00,85.8,79.0,29.86,WSW,247,0.0,5.0,81,0.00,,,0.00,Kevin's Acu-Scrape20,2015-08-01 14:45:00,
2015-08-01 10:50:00,85.8,80.0,29.85,East,90,0.0,5.0,82,0.00,,,0.00,Kevin's Acu-Scrape20,2015-08-01 14:50:00,
2015-08-01 10:55:00,86.4,80.0,29.86,WSW,247,0.0,5.0,81,0.00,,,0.00,Kevin's Acu-Scrape20,2015-08-01 14:55:00,
2015-08-01 11:00:00,86.7,79.8,29.85,West,270,0.0,-999.0,80,-99.99,,,0.01,Acu-Link.com,2015-08-01 15:00:00,
2015-08-01 11:06:00,86.0,80.0,29.86,South,180,6.0,8.0,82,0.00,,,0.00,Kevin's Acu-Scrape20,2015-08-01 15:06:00,
2015-08-01 11:11:00,86.5,80.0,29.85,SSE,157,0.0,8.0,81,0.00,,,0.00,Kevin's Acu-Scrape20,2015-08-01 15:11:00,
2015-08-01 11:16:00,86.0,80.0,29.87,NNE,22,0.0,6.0,82,0.00,,,0.00,Kevin's Acu-Scrape20,2015-08-01 15:16:00,
2015-08-01 11:21:00,86.9,80.0,29.87,South,180,0.0,4.0,81,0.00,,,0.00,Kevin's Acu-Scrape20,2015-08-01 15:21:00,
2015-08-01 11:26:00,87.3,80.0,29.87,South,180,10.0,16.0,79,0.00,,,0.00,Kevin's Acu-Scrape20,2015-08-01 15:26:00,
2015-08-01 11:31:00,87.4,80.0,29.87,ESE,112,5.0,16.0,78,0.00,,,0.00,Kevin's Acu-Scrape20,2015-08-01 15:31:00,
2015-08-01 11:36:00,87.6,79.0,29.88,SE,135,13.0,13.0,77,0.00,,,0.00,Kevin's Acu-Scrape20,2015-08-01 15:36:00,
2015-08-01 11:41:00,87.3,79.0,29.88,SE,135,3.0,13.0,76,0.00,,,0.00,Kevin's Acu-Scrape20,2015-08-01 15:41:00,
2015-08-01 11:46:00,87.6,79.0,29.87,SW,225,0.0,9.0,77,0.00,,,0.00,Kevin's Acu-Scrape20,2015-08-01 15:46:00,
2015-08-01 11:51:00,87.4,79.0,29.87,South,180,3.0,9.0,77,0.00,,,0.00,Kevin's Acu-Scrape20,2015-08-01 15:51:00,
2015-08-01 11:56:00,87.4,79.0,29.87,South,180,5.0,7.0,77,0.00,,,0.00,Kevin's Acu-Scrape20,2015-08-01 15:56:00,
2015-08-01 12:01:00,87.3,79.0,29.87,South,180,0.0,7.0,77,0.00,,,0.00,Kevin's Acu-Scrape20,2015-08-01 16:01:00,
2015-08-01 12:06:00,87.4,80.0,29.87,South,180,0.0,7.0,78,0.00,,,0.00,Kevin's Acu-Scrape20,2015-08-01 16:06:00,
2015-08-01 12:11:00,87.6,80.0,29.87,SW,225,4.0,10.0,78,0.00,,,0.00,Kevin's Acu-Scrape20,2015-08-01 16:11:00,
2015-08-01 12:16:00,88.0,80.0,29.88,SSE,157,3.0,10.0,77,0.00,,,0.00,Kevin's Acu-Scrape20,2015-08-01 16:16:00,
2015-08-01 12:21:00,88.2,80.0,29.88,NNE,22,0.0,9.0,77,0.00,,,0.00,Kevin's Acu-Scrape20,2015-08-01 16:21:00,
2015-08-01 12:26:00,88.7,80.0,29.87,SW,225,5.0,17.0,75,0.00,,,0.00,Kevin's Acu-Scrape20,2015-08-01 16:26:00,
2015-08-01 12:31:00,88.3,79.0,29.88,SSW,202,7.0,18.0,75,0.00,,,0.00,Kevin's Acu-Scrape20,2015-08-01 16:31:00,
2015-08-01 12:36:00,88.7,80.0,29.86,South,180,0.0,18.0,76,0.00,,,0.00,Kevin's Acu-Scrape20,2015-08-01 16:36:00,
2015-08-01 12:41:00,89.6,81.0,29.87,NW,315,0.0,16.0,76,0.00,,,0.00,Kevin's Acu-Scrape20,2015-08-01 16:41:00,
2015-08-01 12:46:00,89.4,80.0,29.86,South,180,0.0,9.0,74,0.00,,,0.00,Kevin's Acu-Scrape20,2015-08-01 16:46:00,
2015-08-01 12:51:00,89.1,79.0,29.86,SSW,202,5.0,10.0,73,0.00,,,0.00,Kevin's Acu-Scrape20,2015-08-01 16:51:00,
2015-08-01 12:56:00,89.1,79.0,29.86,ESE,112,0.0,14.0,73,0.00,,,0.00,Kevin's Acu-Scrape20,2015-08-01 16:56:00,
2015-08-01 13:01:00,89.1,79.0,29.86,ESE,112,2.0,14.0,72,0.00,,,0.00,Kevin's Acu-Scrape20,2015-08-01 17:01:00,
2015-08-01 13:06:00,90.9,80.0,29.84,South,180,2.0,12.0,70,0.00,,,0.00,Kevin's Acu-Scrape20,2015-08-01 17:06:00,
2015-08-01 13:11:00,90.9,79.0,29.85,SE,135,11.0,12.0,69,0.00,,,0.00,Kevin's Acu-Scrape20,2015-08-01 17:11:00,
2015-08-01 13:16:00,89.8,80.0,29.84,South,180,0.0,11.0,72,0.00,,,0.00,Kevin's Acu-Scrape20,2015-08-01 17:16:00,